Torm Republican — OYNE2 — position and weather

sailwx.info

Track history (hours):
 
Tides and Currents Weather Stations Pressure Air Temp Water Temp Dewpoint Dewpoint Depression Visibility Wind Speed Wind Dir Waves Ship Positions

Torm Republican

Last reported at 2016-Apr-22 19:18 UTC. Time now 2016-Apr-29 06:07 UTC.
Position N 36°32' E 123°28'.

Length 183 m; draft 10.4 m.

Type: Ship (hazmat cat A). MMSI: 220560000.

Date/timePositionNaut miles runAvg speedWind from/ knotsBaromVisibWave heightAir tempDewpointWater temp
2016-Apr-22 19:18N 36°32' E 123°28'2714.2
2016-Apr-22 17:22N 36°59' E 123°24'1214.8
2016-Apr-22 16:33N 37°11' E 123°26'1515.0
2016-Apr-22 15:33N 37°26' E 123°24'1414.5
2016-Apr-22 14:33N 37°37' E 123°12'1514.6
2016-Apr-22 13:33N 37°47' E 122°59'4213.6
2016-Apr-22 10:25N 38°18' E 122°22'1214.0
2016-Apr-22 09:33N 38°27' E 122°11'1414.3
2016-Apr-22 08:33N 38°37' E 121°59'1313.1
2016-Apr-22 07:33N 38°50' E 121°54'  
2016-Apr-19 13:15N 38°56' E 122°02'0 0.0
2016-Apr-19 12:18N 38°56' E 122°01'0 0.0
2016-Apr-19 11:21N 38°56' E 122°02'  
2016-Apr-16 11:33N 31°04' E 122°03'1313.2
2016-Apr-16 10:33N 31°12' E 121°50'1313.3
2016-Apr-16 09:33N 31°21' E 121°39'1211.8
2016-Apr-16 08:33N 31°28' E 121°28'7 6.6
2016-Apr-16 07:33N 31°30' E 121°35'4 4.1
2016-Apr-16 06:34N 31°33' E 121°32'3 2.4
2016-Apr-16 05:30N 31°34' E 121°29'0 0.1
2016-Apr-16 04:30N 31°34' E 121°29'0 0.0
2016-Apr-16 03:33N 31°34' E 121°29'0 0.1
2016-Apr-16 02:30N 31°34' E 121°29'0 0.2
2016-Apr-16 01:33N 31°34' E 121°29'0 0.0
2016-Apr-16 00:33N 31°34' E 121°29'0 0.0
2016-Apr-15 23:15N 31°34' E 121°29'0 0.0
2016-Apr-15 22:33N 31°34' E 121°29'0 0.0
2016-Apr-15 21:33N 31°34' E 121°29'0 0.0
2016-Apr-15 20:33N 31°34' E 121°29'0 0.1
2016-Apr-15 19:33N 31°34' E 121°29'0 0.1
2016-Apr-15 18:33N 31°34' E 121°29'0 0.0
2016-Apr-15 17:33N 31°34' E 121°29'0 0.0
2016-Apr-15 16:32N 31°34' E 121°29'0 0.1
2016-Apr-15 15:32N 31°34' E 121°29'0 0.0
2016-Apr-15 14:29N 31°34' E 121°29'0 0.1
2016-Apr-15 13:30N 31°34' E 121°29'0 0.0
2016-Apr-15 12:29N 31°34' E 121°29'0 0.0
2016-Apr-15 11:29N 31°34' E 121°29'0 0.0
2016-Apr-15 10:29N 31°34' E 121°29'0 0.1
2016-Apr-15 09:29N 31°34' E 121°29'0 0.1
2016-Apr-15 08:29N 31°34' E 121°29'0 0.1
2016-Apr-15 07:29N 31°34' E 121°29'0 0.1
2016-Apr-15 06:08N 31°34' E 121°29'0 0.0
2016-Apr-15 05:29N 31°34' E 121°29'0 0.0
2016-Apr-15 04:32N 31°34' E 121°29'0 0.0
2016-Apr-15 03:32N 31°34' E 121°29'0 0.0
2016-Apr-15 02:29N 31°34' E 121°29'0 0.2
2016-Apr-15 01:29N 31°34' E 121°29'0 0.0
2016-Apr-15 00:29N 31°34' E 121°29'0 0.1
2016-Apr-14 23:25N 31°34' E 121°29'0 0.0
2016-Apr-14 22:22N 31°34' E 121°29'0 0.0
2016-Apr-14 21:25N 31°34' E 121°29'0 0.0
2016-Apr-14 20:28N 31°34' E 121°29'0 0.0
2016-Apr-14 19:31N 31°34' E 121°29'0 0.1
2016-Apr-14 18:28N 31°34' E 121°29'0 0.0
2016-Apr-14 17:22N 31°34' E 121°29'0 0.0
2016-Apr-14 16:31N 31°34' E 121°29'0 0.0
2016-Apr-14 15:25N 31°34' E 121°29'0 0.0
2016-Apr-14 14:31N 31°34' E 121°29'0 0.0
2016-Apr-14 13:28N 31°34' E 121°29'0 0.2
2016-Apr-14 12:25N 31°34' E 121°29'0 0.0
2016-Apr-14 11:28N 31°34' E 121°29'0 0.0
2016-Apr-14 10:28N 31°34' E 121°29'0 0.1
2016-Apr-14 09:33N 31°34' E 121°29'1 0.8
2016-Apr-14 08:33N 31°34' E 121°30'2 1.8
2016-Apr-14 07:33N 31°35' E 121°28'1 1.4
2016-Apr-14 06:33N 31°36' E 121°27'0 0.0
2016-Apr-14 05:33N 31°36' E 121°27'0 0.0
2016-Apr-14 04:33N 31°36' E 121°27'0 0.0
2016-Apr-14 03:33N 31°36' E 121°27'0 0.0
2016-Apr-14 02:30N 31°36' E 121°27'0 0.0
2016-Apr-14 01:33N 31°36' E 121°27'0 0.0
2016-Apr-14 00:33N 31°36' E 121°27'0 0.0
2016-Apr-13 23:33N 31°36' E 121°27'0 0.0
2016-Apr-13 22:33N 31°36' E 121°27'0 0.0
2016-Apr-13 21:33N 31°36' E 121°27'0 0.0
2016-Apr-13 20:33N 31°36' E 121°27'0 0.0
2016-Apr-13 19:33N 31°36' E 121°27'0 0.0
2016-Apr-13 18:33N 31°36' E 121°27'0 0.0
2016-Apr-13 17:27N 31°36' E 121°27'0 0.0
2016-Apr-13 16:33N 31°36' E 121°27'0 0.0
2016-Apr-13 15:32N 31°36' E 121°27'0 0.0
2016-Apr-13 14:32N 31°36' E 121°27'0 0.0
2016-Apr-13 13:26N 31°36' E 121°27'0 0.0
2016-Apr-13 12:32N 31°36' E 121°27'0 0.0
2016-Apr-13 11:32N 31°36' E 121°27'0 0.0
2016-Apr-13 10:32N 31°36' E 121°27'0 0.0
2016-Apr-13 09:32N 31°36' E 121°27'0 0.0
2016-Apr-13 08:32N 31°36' E 121°27'0 0.0
2016-Apr-13 07:32N 31°36' E 121°27'0 0.0
2016-Apr-13 06:29N 31°36' E 121°27'0 0.0
2016-Apr-13 05:32N 31°36' E 121°27'0 0.0
2016-Apr-13 04:32N 31°36' E 121°27'0 0.0
2016-Apr-13 03:32N 31°36' E 121°27'0 0.0
2016-Apr-13 02:32N 31°36' E 121°27'0 0.0
2016-Apr-13 01:32N 31°36' E 121°27'0 0.0
2016-Apr-13 00:32N 31°36' E 121°27'0 0.0
2016-Apr-12 23:32N 31°36' E 121°27'0 0.0
2016-Apr-12 22:32N 31°36' E 121°27'0 0.0
2016-Apr-12 21:32N 31°36' E 121°27'0 0.0
2016-Apr-12 20:32N 31°36' E 121°27'0 0.0
2016-Apr-12 19:29N 31°36' E 121°27'  
Track history (hours):
 
Tides and Currents Weather Stations Pressure Air Temp Water Temp Dewpoint Dewpoint Depression Visibility Wind Speed Wind Dir Waves Ship Positions

Torm Republican

Last reported at 2016-Apr-22 19:18 UTC. Time now 2016-Apr-29 06:07 UTC.
Position N 36°32' E 123°28'.

Length 183 m; draft 10.4 m.

Type: Ship (hazmat cat A). MMSI: 220560000.

Date/timePositionNaut miles runAvg speedWind from/ knotsBaromVisibWave heightAir tempDewpointWater temp
2016-Apr-22 19:18N 36°32' E 123°28'2714.2
2016-Apr-22 17:22N 36°59' E 123°24'1214.8
2016-Apr-22 16:33N 37°11' E 123°26'1515.0
2016-Apr-22 15:33N 37°26' E 123°24'1414.5
2016-Apr-22 14:33N 37°37' E 123°12'1514.6
2016-Apr-22 13:33N 37°47' E 122°59'4213.6
2016-Apr-22 10:25N 38°18' E 122°22'1214.0
2016-Apr-22 09:33N 38°27' E 122°11'1414.3
2016-Apr-22 08:33N 38°37' E 121°59'1313.1
2016-Apr-22 07:33N 38°50' E 121°54'  
2016-Apr-19 13:15N 38°56' E 122°02'0 0.0
2016-Apr-19 12:18N 38°56' E 122°01'0 0.0
2016-Apr-19 11:21N 38°56' E 122°02'  
2016-Apr-16 11:33N 31°04' E 122°03'1313.2
2016-Apr-16 10:33N 31°12' E 121°50'1313.3
2016-Apr-16 09:33N 31°21' E 121°39'1211.8
2016-Apr-16 08:33N 31°28' E 121°28'7 6.6
2016-Apr-16 07:33N 31°30' E 121°35'4 4.1
2016-Apr-16 06:34N 31°33' E 121°32'3 2.4
2016-Apr-16 05:30N 31°34' E 121°29'0 0.1
2016-Apr-16 04:30N 31°34' E 121°29'0 0.0
2016-Apr-16 03:33N 31°34' E 121°29'0 0.1
2016-Apr-16 02:30N 31°34' E 121°29'0 0.2
2016-Apr-16 01:33N 31°34' E 121°29'0 0.0
2016-Apr-16 00:33N 31°34' E 121°29'0 0.0
2016-Apr-15 23:15N 31°34' E 121°29'0 0.0
2016-Apr-15 22:33N 31°34' E 121°29'0 0.0
2016-Apr-15 21:33N 31°34' E 121°29'0 0.0
2016-Apr-15 20:33N 31°34' E 121°29'0 0.1
2016-Apr-15 19:33N 31°34' E 121°29'0 0.1
2016-Apr-15 18:33N 31°34' E 121°29'0 0.0
2016-Apr-15 17:33N 31°34' E 121°29'0 0.0
2016-Apr-15 16:32N 31°34' E 121°29'0 0.1
2016-Apr-15 15:32N 31°34' E 121°29'0 0.0
2016-Apr-15 14:29N 31°34' E 121°29'0 0.1
2016-Apr-15 13:30N 31°34' E 121°29'0 0.0
2016-Apr-15 12:29N 31°34' E 121°29'0 0.0
2016-Apr-15 11:29N 31°34' E 121°29'0 0.0
2016-Apr-15 10:29N 31°34' E 121°29'0 0.1
2016-Apr-15 09:29N 31°34' E 121°29'0 0.1
2016-Apr-15 08:29N 31°34' E 121°29'0 0.1
2016-Apr-15 07:29N 31°34' E 121°29'0 0.1
2016-Apr-15 06:08N 31°34' E 121°29'0 0.0
2016-Apr-15 05:29N 31°34' E 121°29'0 0.0
2016-Apr-15 04:32N 31°34' E 121°29'0 0.0
2016-Apr-15 03:32N 31°34' E 121°29'0 0.0
2016-Apr-15 02:29N 31°34' E 121°29'0 0.2
2016-Apr-15 01:29N 31°34' E 121°29'0 0.0
2016-Apr-15 00:29N 31°34' E 121°29'0 0.1
2016-Apr-14 23:25N 31°34' E 121°29'0 0.0
2016-Apr-14 22:22N 31°34' E 121°29'0 0.0
2016-Apr-14 21:25N 31°34' E 121°29'0 0.0
2016-Apr-14 20:28N 31°34' E 121°29'0 0.0
2016-Apr-14 19:31N 31°34' E 121°29'0 0.1
2016-Apr-14 18:28N 31°34' E 121°29'0 0.0
2016-Apr-14 17:22N 31°34' E 121°29'0 0.0
2016-Apr-14 16:31N 31°34' E 121°29'0 0.0
2016-Apr-14 15:25N 31°34' E 121°29'0 0.0
2016-Apr-14 14:31N 31°34' E 121°29'0 0.0
2016-Apr-14 13:28N 31°34' E 121°29'0 0.2
2016-Apr-14 12:25N 31°34' E 121°29'0 0.0
2016-Apr-14 11:28N 31°34' E 121°29'0 0.0
2016-Apr-14 10:28N 31°34' E 121°29'0 0.1
2016-Apr-14 09:33N 31°34' E 121°29'1 0.8
2016-Apr-14 08:33N 31°34' E 121°30'2 1.8
2016-Apr-14 07:33N 31°35' E 121°28'1 1.4
2016-Apr-14 06:33N 31°36' E 121°27'0 0.0
2016-Apr-14 05:33N 31°36' E 121°27'0 0.0
2016-Apr-14 04:33N 31°36' E 121°27'0 0.0
2016-Apr-14 03:33N 31°36' E 121°27'0 0.0
2016-Apr-14 02:30N 31°36' E 121°27'0 0.0
2016-Apr-14 01:33N 31°36' E 121°27'0 0.0
2016-Apr-14 00:33N 31°36' E 121°27'0 0.0
2016-Apr-13 23:33N 31°36' E 121°27'0 0.0
2016-Apr-13 22:33N 31°36' E 121°27'0 0.0
2016-Apr-13 21:33N 31°36' E 121°27'0 0.0
2016-Apr-13 20:33N 31°36' E 121°27'0 0.0
2016-Apr-13 19:33N 31°36' E 121°27'0 0.0
2016-Apr-13 18:33N 31°36' E 121°27'0 0.0
2016-Apr-13 17:27N 31°36' E 121°27'0 0.0
2016-Apr-13 16:33N 31°36' E 121°27'0 0.0
2016-Apr-13 15:32N 31°36' E 121°27'0 0.0
2016-Apr-13 14:32N 31°36' E 121°27'0 0.0
2016-Apr-13 13:26N 31°36' E 121°27'0 0.0
2016-Apr-13 12:32N 31°36' E 121°27'0 0.0
2016-Apr-13 11:32N 31°36' E 121°27'0 0.0
2016-Apr-13 10:32N 31°36' E 121°27'0 0.0
2016-Apr-13 09:32N 31°36' E 121°27'0 0.0
2016-Apr-13 08:32N 31°36' E 121°27'0 0.0
2016-Apr-13 07:32N 31°36' E 121°27'0 0.0
2016-Apr-13 06:29N 31°36' E 121°27'0 0.0
2016-Apr-13 05:32N 31°36' E 121°27'0 0.0
2016-Apr-13 04:32N 31°36' E 121°27'0 0.0
2016-Apr-13 03:32N 31°36' E 121°27'0 0.0
2016-Apr-13 02:32N 31°36' E 121°27'0 0.0
2016-Apr-13 01:32N 31°36' E 121°27'0 0.0
2016-Apr-13 00:32N 31°36' E 121°27'0 0.0
2016-Apr-12 23:32N 31°36' E 121°27'0 0.0
2016-Apr-12 22:32N 31°36' E 121°27'0 0.0
2016-Apr-12 21:32N 31°36' E 121°27'0 0.0
2016-Apr-12 20:32N 31°36' E 121°27'0 0.0
2016-Apr-12 19:29N 31°36' E 121°27'  

Dump ship's entire track history